sensor_id;sensor_type;location;lat;lon;timestamp;P1;durP1;ratioP1;P2;durP2;ratioP2
32637;SDS011;19045;52.268;10.506;2023-05-16T00:01:23;10.75;;;6.28;;
32637;SDS011;19045;52.268;10.506;2023-05-16T00:03:51;8.48;;;5.97;;
32637;SDS011;19045;52.268;10.506;2023-05-16T00:06:17;9.60;;;6.25;;
32637;SDS011;19045;52.268;10.506;2023-05-16T00:08:44;8.30;;;5.85;;
32637;SDS011;19045;52.268;10.506;2023-05-16T00:11:10;9.40;;;6.55;;
32637;SDS011;19045;52.268;10.506;2023-05-16T00:13:37;11.52;;;6.80;;
32637;SDS011;19045;52.268;10.506;2023-05-16T00:16:06;10.25;;;6.32;;
32637;SDS011;19045;52.268;10.506;2023-05-16T00:18:35;8.65;;;6.25;;
32637;SDS011;19045;52.268;10.506;2023-05-16T00:21:02;11.43;;;5.93;;
32637;SDS011;19045;52.268;10.506;2023-05-16T00:23:29;10.15;;;5.78;;
32637;SDS011;19045;52.268;10.506;2023-05-16T00:25:56;8.10;;;5.18;;
32637;SDS011;19045;52.268;10.506;2023-05-16T00:28:22;7.13;;;3.97;;
32637;SDS011;19045;52.268;10.506;2023-05-16T00:30:49;6.18;;;4.20;;
32637;SDS011;19045;52.268;10.506;2023-05-16T00:33:15;5.13;;;3.38;;
32637;SDS011;19045;52.268;10.506;2023-05-16T00:35:43;9.68;;;3.78;;
32637;SDS011;19045;52.268;10.506;2023-05-16T00:38:10;6.20;;;3.47;;
32637;SDS011;19045;52.268;10.506;2023-05-16T00:40:36;6.20;;;3.10;;
32637;SDS011;19045;52.268;10.506;2023-05-16T00:43:03;6.15;;;3.47;;
32637;SDS011;19045;52.268;10.506;2023-05-16T00:45:30;6.82;;;3.47;;
32637;SDS011;19045;52.268;10.506;2023-05-16T00:47:56;5.60;;;2.88;;
32637;SDS011;19045;52.268;10.506;2023-05-16T00:50:23;7.45;;;3.78;;
32637;SDS011;19045;52.268;10.506;2023-05-16T00:52:51;5.10;;;3.05;;
32637;SDS011;19045;52.268;10.506;2023-05-16T00:55:18;6.28;;;3.15;;
32637;SDS011;19045;52.268;10.506;2023-05-16T00:57:44;4.75;;;3.25;;
32637;SDS011;19045;52.268;10.506;2023-05-16T01:00:11;5.95;;;3.40;;
32637;SDS011;19045;52.268;10.506;2023-05-16T01:02:40;5.47;;;3.10;;
32637;SDS011;19045;52.268;10.506;2023-05-16T01:05:07;7.50;;;3.35;;
32637;SDS011;19045;52.268;10.506;2023-05-16T01:07:34;5.32;;;3.30;;
32637;SDS011;19045;52.268;10.506;2023-05-16T01:10:03;10.38;;;3.20;;
32637;SDS011;19045;52.268;10.506;2023-05-16T01:12:35;5.25;;;3.08;;
32637;SDS011;19045;52.268;10.506;2023-05-16T01:15:07;4.03;;;3.13;;
32637;SDS011;19045;52.268;10.506;2023-05-16T01:17:40;5.88;;;3.03;;
32637;SDS011;19045;52.268;10.506;2023-05-16T01:20:19;6.57;;;3.15;;
32637;SDS011;19045;52.268;10.506;2023-05-16T01:22:58;4.85;;;3.03;;
32637;SDS011;19045;52.268;10.506;2023-05-16T01:25:37;6.60;;;3.20;;
32637;SDS011;19045;52.268;10.506;2023-05-16T01:28:17;4.22;;;3.45;;
32637;SDS011;19045;52.268;10.506;2023-05-16T01:30:45;5.32;;;3.70;;
32637;SDS011;19045;52.268;10.506;2023-05-16T01:33:11;6.40;;;3.50;;
32637;SDS011;19045;52.268;10.506;2023-05-16T01:35:39;7.82;;;3.58;;
32637;SDS011;19045;52.268;10.506;2023-05-16T01:38:14;5.82;;;3.20;;
32637;SDS011;19045;52.268;10.506;2023-05-16T01:40:45;7.32;;;3.33;;
32637;SDS011;19045;52.268;10.506;2023-05-16T01:43:22;4.85;;;3.38;;
32637;SDS011;19045;52.268;10.506;2023-05-16T01:45:56;6.60;;;3.53;;
32637;SDS011;19045;52.268;10.506;2023-05-16T01:48:26;5.57;;;3.03;;
32637;SDS011;19045;52.268;10.506;2023-05-16T01:50:58;9.05;;;3.35;;
32637;SDS011;19045;52.268;10.506;2023-05-16T01:53:28;5.65;;;3.20;;
32637;SDS011;19045;52.268;10.506;2023-05-16T01:55:59;5.40;;;3.05;;
32637;SDS011;19045;52.268;10.506;2023-05-16T01:58:31;7.03;;;2.70;;
32637;SDS011;19045;52.268;10.506;2023-05-16T02:00:59;6.72;;;2.90;;
32637;SDS011;19045;52.268;10.506;2023-05-16T02:03:27;7.25;;;3.08;;
32637;SDS011;19045;52.268;10.506;2023-05-16T02:05:54;5.72;;;3.13;;
32637;SDS011;19045;52.268;10.506;2023-05-16T02:08:20;6.45;;;4.43;;
32637;SDS011;19045;52.268;10.506;2023-05-16T02:10:47;6.22;;;3.00;;
32637;SDS011;19045;52.268;10.506;2023-05-16T02:13:14;5.35;;;3.13;;
32637;SDS011;19045;52.268;10.506;2023-05-16T02:15:42;7.55;;;3.38;;
32637;SDS011;19045;52.268;10.506;2023-05-16T02:18:08;7.80;;;3.92;;
32637;SDS011;19045;52.268;10.506;2023-05-16T02:20:36;9.15;;;3.15;;
32637;SDS011;19045;52.268;10.506;2023-05-16T02:23:03;7.60;;;3.70;;
32637;SDS011;19045;52.268;10.506;2023-05-16T02:25:30;6.40;;;2.95;;
32637;SDS011;19045;52.268;10.506;2023-05-16T02:27:56;5.30;;;3.85;;
32637;SDS011;19045;52.268;10.506;2023-05-16T02:30:23;6.72;;;3.05;;
32637;SDS011;19045;52.268;10.506;2023-05-16T02:32:51;5.80;;;3.30;;
32637;SDS011;19045;52.268;10.506;2023-05-16T02:35:18;6.32;;;3.95;;
32637;SDS011;19045;52.268;10.506;2023-05-16T02:37:44;6.38;;;3.50;;
32637;SDS011;19045;52.268;10.506;2023-05-16T02:40:11;5.75;;;3.42;;
32637;SDS011;19045;52.268;10.506;2023-05-16T02:42:39;11.50;;;3.05;;
32637;SDS011;19045;52.268;10.506;2023-05-16T02:45:06;6.60;;;3.35;;
32637;SDS011;19045;52.268;10.506;2023-05-16T02:47:33;6.63;;;3.70;;
32637;SDS011;19045;52.268;10.506;2023-05-16T02:50:01;8.80;;;3.42;;
32637;SDS011;19045;52.268;10.506;2023-05-16T02:52:28;5.45;;;3.67;;
32637;SDS011;19045;52.268;10.506;2023-05-16T02:54:54;8.15;;;2.65;;
32637;SDS011;19045;52.268;10.506;2023-05-16T02:57:21;6.03;;;2.95;;
32637;SDS011;19045;52.268;10.506;2023-05-16T02:59:47;7.18;;;3.00;;
32637;SDS011;19045;52.268;10.506;2023-05-16T03:02:17;5.70;;;2.90;;
32637;SDS011;19045;52.268;10.506;2023-05-16T03:04:43;4.60;;;3.08;;
32637;SDS011;19045;52.268;10.506;2023-05-16T03:07:11;5.10;;;2.90;;
32637;SDS011;19045;52.268;10.506;2023-05-16T03:09:38;5.57;;;2.95;;
32637;SDS011;19045;52.268;10.506;2023-05-16T03:12:05;10.18;;;3.20;;
32637;SDS011;19045;52.268;10.506;2023-05-16T03:14:32;5.28;;;2.80;;
32637;SDS011;19045;52.268;10.506;2023-05-16T03:16:58;4.25;;;2.70;;
32637;SDS011;19045;52.268;10.506;2023-05-16T03:19:25;9.18;;;2.53;;
32637;SDS011;19045;52.268;10.506;2023-05-16T03:21:52;6.75;;;2.70;;
32637;SDS011;19045;52.268;10.506;2023-05-16T03:24:20;5.47;;;2.63;;
32637;SDS011;19045;52.268;10.506;2023-05-16T03:26:46;8.68;;;2.80;;
32637;SDS011;19045;52.268;10.506;2023-05-16T03:29:13;9.48;;;2.92;;
32637;SDS011;19045;52.268;10.506;2023-05-16T03:31:40;4.80;;;2.30;;
32637;SDS011;19045;52.268;10.506;2023-05-16T03:34:07;2.97;;;2.08;;
32637;SDS011;19045;52.268;10.506;2023-05-16T03:36:33;7.15;;;2.83;;
32637;SDS011;19045;52.268;10.506;2023-05-16T03:39:00;8.18;;;2.72;;
32637;SDS011;19045;52.268;10.506;2023-05-16T03:41:28;7.60;;;2.53;;
32637;SDS011;19045;52.268;10.506;2023-05-16T03:43:55;6.57;;;2.35;;
32637;SDS011;19045;52.268;10.506;2023-05-16T03:46:21;5.45;;;2.50;;
32637;SDS011;19045;52.268;10.506;2023-05-16T03:48:48;6.78;;;2.33;;
32637;SDS011;19045;52.268;10.506;2023-05-16T03:51:15;3.60;;;2.17;;
32637;SDS011;19045;52.268;10.506;2023-05-16T03:53:41;5.55;;;2.63;;
32637;SDS011;19045;52.268;10.506;2023-05-16T03:56:08;4.60;;;2.08;;
32637;SDS011;19045;52.268;10.506;2023-05-16T03:58:36;7.32;;;2.88;;
32637;SDS011;19045;52.268;10.506;2023-05-16T04:01:03;5.50;;;2.20;;
32637;SDS011;19045;52.268;10.506;2023-05-16T04:03:30;4.90;;;2.42;;
32637;SDS011;19045;52.268;10.506;2023-05-16T04:05:58;8.02;;;2.55;;
32637;SDS011;19045;52.268;10.506;2023-05-16T04:08:24;3.92;;;2.08;;
32637;SDS011;19045;52.268;10.506;2023-05-16T04:10:51;8.73;;;2.53;;
32637;SDS011;19045;52.268;10.506;2023-05-16T04:13:18;8.25;;;3.15;;
32637;SDS011;19045;52.268;10.506;2023-05-16T04:15:46;5.63;;;2.15;;
32637;SDS011;19045;52.268;10.506;2023-05-16T04:18:12;6.75;;;2.55;;
32637;SDS011;19045;52.268;10.506;2023-05-16T04:20:40;9.57;;;3.10;;
32637;SDS011;19045;52.268;10.506;2023-05-16T04:23:07;5.00;;;2.40;;
32637;SDS011;19045;52.268;10.506;2023-05-16T04:25:36;3.83;;;2.22;;
32637;SDS011;19045;52.268;10.506;2023-05-16T04:28:02;8.07;;;2.92;;
32637;SDS011;19045;52.268;10.506;2023-05-16T04:30:29;9.48;;;2.50;;
32637;SDS011;19045;52.268;10.506;2023-05-16T04:32:57;8.23;;;2.50;;
32637;SDS011;19045;52.268;10.506;2023-05-16T04:35:24;6.47;;;2.03;;
32637;SDS011;19045;52.268;10.506;2023-05-16T04:37:53;5.10;;;2.25;;
32637;SDS011;19045;52.268;10.506;2023-05-16T04:40:19;9.90;;;2.00;;
32637;SDS011;19045;52.268;10.506;2023-05-16T04:42:46;7.57;;;2.08;;
32637;SDS011;19045;52.268;10.506;2023-05-16T04:45:13;10.25;;;2.40;;
32637;SDS011;19045;52.268;10.506;2023-05-16T04:47:40;6.88;;;2.15;;
32637;SDS011;19045;52.268;10.506;2023-05-16T04:50:08;6.45;;;2.40;;
32637;SDS011;19045;52.268;10.506;2023-05-16T04:52:35;6.70;;;2.35;;
32637;SDS011;19045;52.268;10.506;2023-05-16T04:55:03;6.18;;;2.05;;
32637;SDS011;19045;52.268;10.506;2023-05-16T04:57:30;8.25;;;2.25;;
32637;SDS011;19045;52.268;10.506;2023-05-16T04:59:57;4.57;;;2.00;;
32637;SDS011;19045;52.268;10.506;2023-05-16T05:02:23;10.10;;;2.15;;
32637;SDS011;19045;52.268;10.506;2023-05-16T05:04:51;6.55;;;1.98;;
32637;SDS011;19045;52.268;10.506;2023-05-16T05:07:19;10.10;;;2.92;;
32637;SDS011;19045;52.268;10.506;2023-05-16T05:09:45;7.13;;;1.83;;
32637;SDS011;19045;52.268;10.506;2023-05-16T05:12:12;10.48;;;1.83;;
32637;SDS011;19045;52.268;10.506;2023-05-16T05:14:39;6.70;;;1.73;;
32637;SDS011;19045;52.268;10.506;2023-05-16T05:17:05;4.90;;;1.77;;
32637;SDS011;19045;52.268;10.506;2023-05-16T05:19:32;8.52;;;2.25;;
32637;SDS011;19045;52.268;10.506;2023-05-16T05:21:58;8.73;;;1.90;;
32637;SDS011;19045;52.268;10.506;2023-05-16T05:24:26;7.13;;;1.80;;
32637;SDS011;19045;52.268;10.506;2023-05-16T05:26:53;5.82;;;1.90;;
32637;SDS011;19045;52.268;10.506;2023-05-16T05:29:20;8.90;;;2.17;;
32637;SDS011;19045;52.268;10.506;2023-05-16T05:31:46;9.32;;;2.10;;
32637;SDS011;19045;52.268;10.506;2023-05-16T05:34:13;8.45;;;1.95;;
32637;SDS011;19045;52.268;10.506;2023-05-16T05:36:40;10.50;;;2.10;;
32637;SDS011;19045;52.268;10.506;2023-05-16T05:39:07;15.13;;;2.40;;
32637;SDS011;19045;52.268;10.506;2023-05-16T05:41:35;8.25;;;1.70;;
32637;SDS011;19045;52.268;10.506;2023-05-16T05:44:02;6.85;;;2.17;;
32637;SDS011;19045;52.268;10.506;2023-05-16T05:46:31;6.15;;;1.85;;
32637;SDS011;19045;52.268;10.506;2023-05-16T05:48:59;10.73;;;2.30;;
32637;SDS011;19045;52.268;10.506;2023-05-16T05:51:26;10.18;;;2.20;;
32637;SDS011;19045;52.268;10.506;2023-05-16T05:53:52;16.27;;;3.35;;
32637;SDS011;19045;52.268;10.506;2023-05-16T05:56:19;17.00;;;2.25;;
32637;SDS011;19045;52.268;10.506;2023-05-16T05:58:48;11.52;;;3.13;;
32637;SDS011;19045;52.268;10.506;2023-05-16T06:01:14;15.00;;;3.33;;
32637;SDS011;19045;52.268;10.506;2023-05-16T06:03:41;11.63;;;2.78;;
32637;SDS011;19045;52.268;10.506;2023-05-16T06:06:08;11.57;;;2.70;;
32637;SDS011;19045;52.268;10.506;2023-05-16T06:08:34;15.10;;;3.03;;
32637;SDS011;19045;52.268;10.506;2023-05-16T06:11:03;20.40;;;2.70;;
32637;SDS011;19045;52.268;10.506;2023-05-16T06:13:29;8.20;;;2.47;;
32637;SDS011;19045;52.268;10.506;2023-05-16T06:15:57;21.98;;;2.95;;
32637;SDS011;19045;52.268;10.506;2023-05-16T06:20:55;14.45;;;3.65;;
32637;SDS011;19045;52.268;10.506;2023-05-16T06:23:21;17.88;;;3.38;;
32637;SDS011;19045;52.268;10.506;2023-05-16T06:25:49;17.95;;;3.28;;
32637;SDS011;19045;52.268;10.506;2023-05-16T06:28:15;16.00;;;2.58;;
32637;SDS011;19045;52.268;10.506;2023-05-16T06:30:42;17.42;;;3.17;;
32637;SDS011;19045;52.268;10.506;2023-05-16T06:33:10;14.98;;;2.70;;
32637;SDS011;19045;52.268;10.506;2023-05-16T06:35:37;17.58;;;3.55;;
32637;SDS011;19045;52.268;10.506;2023-05-16T06:38:04;19.15;;;3.15;;
32637;SDS011;19045;52.268;10.506;2023-05-16T06:40:31;14.70;;;2.72;;
32637;SDS011;19045;52.268;10.506;2023-05-16T06:42:58;14.80;;;2.85;;
32637;SDS011;19045;52.268;10.506;2023-05-16T06:45:25;13.02;;;2.72;;
32637;SDS011;19045;52.268;10.506;2023-05-16T06:47:51;16.48;;;3.05;;
32637;SDS011;19045;52.268;10.506;2023-05-16T06:50:19;23.77;;;3.40;;
32637;SDS011;19045;52.268;10.506;2023-05-16T06:52:46;19.65;;;2.97;;
32637;SDS011;19045;52.268;10.506;2023-05-16T06:55:13;19.90;;;3.47;;
32637;SDS011;19045;52.268;10.506;2023-05-16T06:57:39;15.43;;;3.22;;
32637;SDS011;19045;52.268;10.506;2023-05-16T07:00:07;15.07;;;2.67;;
32637;SDS011;19045;52.268;10.506;2023-05-16T07:02:34;18.27;;;3.05;;
32637;SDS011;19045;52.268;10.506;2023-05-16T07:05:00;15.13;;;2.67;;
32637;SDS011;19045;52.268;10.506;2023-05-16T07:07:28;16.98;;;3.83;;
32637;SDS011;19045;52.268;10.506;2023-05-16T07:09:55;17.75;;;3.67;;
32637;SDS011;19045;52.268;10.506;2023-05-16T07:12:21;13.55;;;2.20;;
32637;SDS011;19045;52.268;10.506;2023-05-16T07:14:48;15.85;;;3.28;;
32637;SDS011;19045;52.268;10.506;2023-05-16T07:17:15;26.98;;;3.30;;
32637;SDS011;19045;52.268;10.506;2023-05-16T07:19:42;16.60;;;3.10;;
32637;SDS011;19045;52.268;10.506;2023-05-16T07:22:08;12.93;;;2.60;;
32637;SDS011;19045;52.268;10.506;2023-05-16T07:24:37;11.00;;;2.55;;
32637;SDS011;19045;52.268;10.506;2023-05-16T07:27:04;19.92;;;3.17;;
32637;SDS011;19045;52.268;10.506;2023-05-16T07:29:31;15.98;;;2.83;;
32637;SDS011;19045;52.268;10.506;2023-05-16T07:31:57;10.60;;;2.70;;
32637;SDS011;19045;52.268;10.506;2023-05-16T07:34:24;11.50;;;2.28;;
32637;SDS011;19045;52.268;10.506;2023-05-16T07:36:50;13.68;;;3.15;;
32637;SDS011;19045;52.268;10.506;2023-05-16T07:39:17;13.30;;;2.65;;
32637;SDS011;19045;52.268;10.506;2023-05-16T07:41:45;10.52;;;2.08;;
32637;SDS011;19045;52.268;10.506;2023-05-16T07:44:12;13.30;;;2.20;;
32637;SDS011;19045;52.268;10.506;2023-05-16T07:46:38;19.00;;;2.40;;
32637;SDS011;19045;52.268;10.506;2023-05-16T07:49:05;10.35;;;2.00;;
32637;SDS011;19045;52.268;10.506;2023-05-16T07:51:31;19.65;;;3.05;;
32637;SDS011;19045;52.268;10.506;2023-05-16T07:53:58;10.35;;;2.72;;
32637;SDS011;19045;52.268;10.506;2023-05-16T07:56:25;17.80;;;1.92;;
32637;SDS011;19045;52.268;10.506;2023-05-16T07:58:53;10.35;;;2.13;;
32637;SDS011;19045;52.268;10.506;2023-05-16T08:01:20;10.65;;;2.40;;
32637;SDS011;19045;52.268;10.506;2023-05-16T08:03:46;10.75;;;2.28;;
32637;SDS011;19045;52.268;10.506;2023-05-16T08:06:13;11.85;;;3.10;;
32637;SDS011;19045;52.268;10.506;2023-05-16T08:08:40;16.17;;;2.40;;
32637;SDS011;19045;52.268;10.506;2023-05-16T08:11:07;9.77;;;2.53;;
32637;SDS011;19045;52.268;10.506;2023-05-16T08:13:33;14.40;;;2.33;;
32637;SDS011;19045;52.268;10.506;2023-05-16T08:16:02;13.98;;;2.40;;
32637;SDS011;19045;52.268;10.506;2023-05-16T08:18:28;22.55;;;3.90;;
32637;SDS011;19045;52.268;10.506;2023-05-16T08:20:55;17.70;;;2.90;;
32637;SDS011;19045;52.268;10.506;2023-05-16T08:23:22;18.15;;;2.65;;
32637;SDS011;19045;52.268;10.506;2023-05-16T08:25:48;16.63;;;2.78;;
32637;SDS011;19045;52.268;10.506;2023-05-16T08:28:15;15.13;;;2.60;;
32637;SDS011;19045;52.268;10.506;2023-05-16T08:30:42;11.88;;;2.10;;
32637;SDS011;19045;52.268;10.506;2023-05-16T08:33:10;11.98;;;2.08;;
32637;SDS011;19045;52.268;10.506;2023-05-16T08:35:36;8.90;;;2.42;;
32637;SDS011;19045;52.268;10.506;2023-05-16T08:38:07;10.20;;;2.50;;
32637;SDS011;19045;52.268;10.506;2023-05-16T08:40:33;12.07;;;2.00;;
32637;SDS011;19045;52.268;10.506;2023-05-16T08:43:00;9.77;;;1.83;;
32637;SDS011;19045;52.268;10.506;2023-05-16T08:45:28;10.77;;;2.17;;
32637;SDS011;19045;52.268;10.506;2023-05-16T08:47:56;12.48;;;2.22;;
32637;SDS011;19045;52.268;10.506;2023-05-16T08:50:27;15.45;;;2.10;;
32637;SDS011;19045;52.268;10.506;2023-05-16T08:52:56;12.07;;;2.35;;
32637;SDS011;19045;52.268;10.506;2023-05-16T08:55:23;21.05;;;2.75;;
32637;SDS011;19045;52.268;10.506;2023-05-16T08:57:52;6.47;;;1.60;;
32637;SDS011;19045;52.268;10.506;2023-05-16T09:00:20;9.82;;;2.35;;
32637;SDS011;19045;52.268;10.506;2023-05-16T09:02:47;10.32;;;2.05;;
32637;SDS011;19045;52.268;10.506;2023-05-16T09:05:15;11.15;;;2.83;;
32637;SDS011;19045;52.268;10.506;2023-05-16T09:07:44;13.15;;;3.00;;
32637;SDS011;19045;52.268;10.506;2023-05-16T09:10:11;10.43;;;2.22;;
32637;SDS011;19045;52.268;10.506;2023-05-16T09:12:38;9.05;;;1.98;;
32637;SDS011;19045;52.268;10.506;2023-05-16T09:15:06;8.45;;;1.98;;
32637;SDS011;19045;52.268;10.506;2023-05-16T09:17:34;11.85;;;2.13;;
32637;SDS011;19045;52.268;10.506;2023-05-16T09:20:09;9.48;;;2.35;;
32637;SDS011;19045;52.268;10.506;2023-05-16T09:22:37;10.80;;;2.10;;
32637;SDS011;19045;52.268;10.506;2023-05-16T09:25:06;13.95;;;2.17;;
32637;SDS011;19045;52.268;10.506;2023-05-16T09:27:33;7.88;;;2.45;;
32637;SDS011;19045;52.268;10.506;2023-05-16T09:30:00;12.38;;;1.95;;
32637;SDS011;19045;52.268;10.506;2023-05-16T09:32:27;7.47;;;1.88;;
32637;SDS011;19045;52.268;10.506;2023-05-16T09:34:54;10.77;;;1.75;;
32637;SDS011;19045;52.268;10.506;2023-05-16T09:37:22;9.30;;;1.48;;
32637;SDS011;19045;52.268;10.506;2023-05-16T09:39:50;13.40;;;2.20;;
32637;SDS011;19045;52.268;10.506;2023-05-16T09:42:21;10.70;;;2.15;;
32637;SDS011;19045;52.268;10.506;2023-05-16T09:44:48;9.43;;;1.83;;
32637;SDS011;19045;52.268;10.506;2023-05-16T09:47:16;13.13;;;2.00;;
32637;SDS011;19045;52.268;10.506;2023-05-16T09:49:43;6.95;;;1.52;;
32637;SDS011;19045;52.268;10.506;2023-05-16T09:52:11;9.23;;;1.80;;
32637;SDS011;19045;52.268;10.506;2023-05-16T09:54:38;13.02;;;1.98;;
32637;SDS011;19045;52.268;10.506;2023-05-16T09:57:05;15.13;;;1.60;;
32637;SDS011;19045;52.268;10.506;2023-05-16T09:59:35;14.73;;;1.70;;
32637;SDS011;19045;52.268;10.506;2023-05-16T10:02:02;13.38;;;2.15;;
32637;SDS011;19045;52.268;10.506;2023-05-16T10:04:31;4.63;;;1.85;;
32637;SDS011;19045;52.268;10.506;2023-05-16T10:06:58;11.77;;;2.15;;
32637;SDS011;19045;52.268;10.506;2023-05-16T10:09:26;5.80;;;1.48;;
32637;SDS011;19045;52.268;10.506;2023-05-16T10:11:54;9.60;;;1.52;;
32637;SDS011;19045;52.268;10.506;2023-05-16T10:14:23;6.35;;;1.38;;
32637;SDS011;19045;52.268;10.506;2023-05-16T10:16:52;5.30;;;1.52;;
32637;SDS011;19045;52.268;10.506;2023-05-16T10:19:19;6.63;;;1.40;;
32637;SDS011;19045;52.268;10.506;2023-05-16T10:21:47;8.50;;;1.73;;
32637;SDS011;19045;52.268;10.506;2023-05-16T10:24:19;7.03;;;1.42;;
32637;SDS011;19045;52.268;10.506;2023-05-16T10:26:51;9.57;;;1.50;;
32637;SDS011;19045;52.268;10.506;2023-05-16T10:29:18;8.57;;;1.58;;
32637;SDS011;19045;52.268;10.506;2023-05-16T10:31:45;9.70;;;1.63;;
32637;SDS011;19045;52.268;10.506;2023-05-16T10:34:15;8.77;;;1.30;;
32637;SDS011;19045;52.268;10.506;2023-05-16T10:36:43;5.28;;;1.25;;
32637;SDS011;19045;52.268;10.506;2023-05-16T10:39:11;6.13;;;1.30;;
32637;SDS011;19045;52.268;10.506;2023-05-16T10:41:39;7.68;;;1.30;;
32637;SDS011;19045;52.268;10.506;2023-05-16T10:44:11;6.30;;;1.65;;
32637;SDS011;19045;52.268;10.506;2023-05-16T10:46:39;5.93;;;1.38;;
32637;SDS011;19045;52.268;10.506;2023-05-16T10:49:19;5.25;;;1.50;;
32637;SDS011;19045;52.268;10.506;2023-05-16T10:51:48;6.80;;;1.50;;
32637;SDS011;19045;52.268;10.506;2023-05-16T10:54:32;9.05;;;1.15;;
32637;SDS011;19045;52.268;10.506;2023-05-16T10:57:02;6.82;;;1.20;;
32637;SDS011;19045;52.268;10.506;2023-05-16T10:59:30;6.45;;;1.30;;
32637;SDS011;19045;52.268;10.506;2023-05-16T11:02:19;9.88;;;1.45;;
32637;SDS011;19045;52.268;10.506;2023-05-16T11:04:49;8.93;;;1.40;;
32637;SDS011;19045;52.268;10.506;2023-05-16T11:07:17;4.72;;;1.40;;
32637;SDS011;19045;52.268;10.506;2023-05-16T11:09:45;6.80;;;1.63;;
32637;SDS011;19045;52.268;10.506;2023-05-16T11:12:30;8.90;;;1.13;;
32637;SDS011;19045;52.268;10.506;2023-05-16T11:15:06;8.85;;;1.13;;
32637;SDS011;19045;52.268;10.506;2023-05-16T11:17:43;5.78;;;1.20;;
32637;SDS011;19045;52.268;10.506;2023-05-16T11:20:23;4.43;;;1.05;;
32637;SDS011;19045;52.268;10.506;2023-05-16T11:22:50;6.75;;;1.08;;
32637;SDS011;19045;52.268;10.506;2023-05-16T11:25:37;7.07;;;1.30;;
32637;SDS011;19045;52.268;10.506;2023-05-16T11:28:05;6.07;;;1.55;;
32637;SDS011;19045;52.268;10.506;2023-05-16T11:30:35;6.68;;;1.10;;
32637;SDS011;19045;52.268;10.506;2023-05-16T11:33:02;6.55;;;1.30;;
32637;SDS011;19045;52.268;10.506;2023-05-16T11:35:30;7.53;;;1.45;;
32637;SDS011;19045;52.268;10.506;2023-05-16T11:37:57;6.22;;;1.25;;
32637;SDS011;19045;52.268;10.506;2023-05-16T11:40:25;5.28;;;1.40;;
32637;SDS011;19045;52.268;10.506;2023-05-16T11:42:52;3.22;;;0.98;;
32637;SDS011;19045;52.268;10.506;2023-05-16T11:45:19;6.78;;;1.23;;
32637;SDS011;19045;52.268;10.506;2023-05-16T11:47:47;5.78;;;1.25;;
32637;SDS011;19045;52.268;10.506;2023-05-16T11:50:15;3.65;;;1.00;;
32637;SDS011;19045;52.268;10.506;2023-05-16T11:52:45;6.03;;;1.23;;
32637;SDS011;19045;52.268;10.506;2023-05-16T11:55:14;5.85;;;1.05;;
32637;SDS011;19045;52.268;10.506;2023-05-16T11:57:42;8.75;;;1.27;;
32637;SDS011;19045;52.268;10.506;2023-05-16T12:00:13;5.13;;;1.20;;
32637;SDS011;19045;52.268;10.506;2023-05-16T12:02:43;6.22;;;1.40;;
32637;SDS011;19045;52.268;10.506;2023-05-16T12:05:11;9.15;;;1.38;;
32637;SDS011;19045;52.268;10.506;2023-05-16T12:07:39;8.70;;;1.40;;
32637;SDS011;19045;52.268;10.506;2023-05-16T12:10:08;4.88;;;0.90;;
32637;SDS011;19045;52.268;10.506;2023-05-16T12:12:35;6.32;;;1.20;;
32637;SDS011;19045;52.268;10.506;2023-05-16T12:15:05;6.60;;;1.00;;
32637;SDS011;19045;52.268;10.506;2023-05-16T12:17:33;7.88;;;1.30;;
32637;SDS011;19045;52.268;10.506;2023-05-16T12:20:00;4.82;;;1.10;;
32637;SDS011;19045;52.268;10.506;2023-05-16T12:22:30;6.80;;;1.05;;
32637;SDS011;19045;52.268;10.506;2023-05-16T12:24:57;6.15;;;1.30;;
32637;SDS011;19045;52.268;10.506;2023-05-16T12:27:25;5.30;;;1.10;;
32637;SDS011;19045;52.268;10.506;2023-05-16T12:29:52;4.35;;;1.08;;
32637;SDS011;19045;52.268;10.506;2023-05-16T12:32:19;10.82;;;1.35;;
32637;SDS011;19045;52.268;10.506;2023-05-16T12:34:48;5.72;;;1.20;;
32637;SDS011;19045;52.268;10.506;2023-05-16T12:37:15;6.22;;;1.23;;
32637;SDS011;19045;52.268;10.506;2023-05-16T12:39:41;3.42;;;1.10;;
32637;SDS011;19045;52.268;10.506;2023-05-16T12:42:11;6.88;;;1.67;;
32637;SDS011;19045;52.268;10.506;2023-05-16T12:44:39;4.38;;;0.95;;
32637;SDS011;19045;52.268;10.506;2023-05-16T12:49:42;6.07;;;1.40;;
32637;SDS011;19045;52.268;10.506;2023-05-16T12:54:43;4.35;;;1.13;;
32637;SDS011;19045;52.268;10.506;2023-05-16T12:57:09;7.60;;;1.48;;
32637;SDS011;19045;52.268;10.506;2023-05-16T12:59:36;7.63;;;1.52;;
32637;SDS011;19045;52.268;10.506;2023-05-16T13:02:04;6.45;;;1.30;;
32637;SDS011;19045;52.268;10.506;2023-05-16T13:04:31;6.78;;;1.60;;
32637;SDS011;19045;52.268;10.506;2023-05-16T13:06:57;4.00;;;1.70;;
32637;SDS011;19045;52.268;10.506;2023-05-16T13:09:24;10.40;;;2.15;;
32637;SDS011;19045;52.268;10.506;2023-05-16T13:11:51;7.50;;;1.50;;
32637;SDS011;19045;52.268;10.506;2023-05-16T13:14:18;7.05;;;1.08;;
32637;SDS011;19045;52.268;10.506;2023-05-16T13:16:44;4.13;;;1.02;;
32637;SDS011;19045;52.268;10.506;2023-05-16T13:19:12;5.53;;;1.00;;
32637;SDS011;19045;52.268;10.506;2023-05-16T13:21:39;4.65;;;0.90;;
32637;SDS011;19045;52.268;10.506;2023-05-16T13:24:07;10.85;;;1.90;;
32637;SDS011;19045;52.268;10.506;2023-05-16T13:26:34;8.05;;;1.35;;
32637;SDS011;19045;52.268;10.506;2023-05-16T13:29:02;6.05;;;1.30;;
32637;SDS011;19045;52.268;10.506;2023-05-16T13:31:28;6.03;;;1.45;;
32637;SDS011;19045;52.268;10.506;2023-05-16T13:33:55;7.10;;;1.17;;
32637;SDS011;19045;52.268;10.506;2023-05-16T13:36:25;7.63;;;1.15;;
32637;SDS011;19045;52.268;10.506;2023-05-16T13:38:52;6.10;;;1.25;;
32637;SDS011;19045;52.268;10.506;2023-05-16T13:41:18;4.50;;;1.60;;
32637;SDS011;19045;52.268;10.506;2023-05-16T13:43:46;9.00;;;1.75;;
32637;SDS011;19045;52.268;10.506;2023-05-16T13:46:12;10.85;;;1.75;;
32637;SDS011;19045;52.268;10.506;2023-05-16T13:48:39;6.85;;;1.10;;
32637;SDS011;19045;52.268;10.506;2023-05-16T13:51:06;9.68;;;1.10;;
32637;SDS011;19045;52.268;10.506;2023-05-16T13:53:36;4.35;;;1.10;;
32637;SDS011;19045;52.268;10.506;2023-05-16T13:56:03;8.40;;;1.75;;
32637;SDS011;19045;52.268;10.506;2023-05-16T13:58:30;9.75;;;2.28;;
32637;SDS011;19045;52.268;10.506;2023-05-16T14:00:57;5.43;;;1.10;;
32637;SDS011;19045;52.268;10.506;2023-05-16T14:03:24;5.97;;;1.20;;
32637;SDS011;19045;52.268;10.506;2023-05-16T14:05:50;5.68;;;1.40;;
32637;SDS011;19045;52.268;10.506;2023-05-16T14:08:17;19.80;;;1.67;;
32637;SDS011;19045;52.268;10.506;2023-05-16T14:10:45;5.82;;;1.60;;
32637;SDS011;19045;52.268;10.506;2023-05-16T14:13:12;5.18;;;1.70;;
32637;SDS011;19045;52.268;10.506;2023-05-16T14:15:38;5.65;;;1.20;;
32637;SDS011;19045;52.268;10.506;2023-05-16T14:18:05;10.57;;;1.30;;
32637;SDS011;19045;52.268;10.506;2023-05-16T14:20:32;4.70;;;1.10;;
32637;SDS011;19045;52.268;10.506;2023-05-16T14:22:58;5.00;;;0.93;;
32637;SDS011;19045;52.268;10.506;2023-05-16T14:25:25;4.35;;;1.20;;
32637;SDS011;19045;52.268;10.506;2023-05-16T14:27:53;5.57;;;1.10;;
32637;SDS011;19045;52.268;10.506;2023-05-16T14:30:20;3.15;;;1.20;;
32637;SDS011;19045;52.268;10.506;2023-05-16T14:32:46;4.82;;;1.25;;
32637;SDS011;19045;52.268;10.506;2023-05-16T14:35:13;3.72;;;0.90;;
32637;SDS011;19045;52.268;10.506;2023-05-16T14:37:40;4.20;;;1.20;;
32637;SDS011;19045;52.268;10.506;2023-05-16T14:40:06;4.68;;;1.20;;
32637;SDS011;19045;52.268;10.506;2023-05-16T14:42:34;3.47;;;1.13;;